HAAB/ADD METAR and TAF weather

Enter ICAO airport designator
Station Type Date Time Source
HAAB METAR 2022/12/04 05:00 UTC NOAA

HAAB 040500Z 11005KT 9999 FEW025 13/04 Q1026 NOSIG


Station Type Date Time Source
HAAB Decoded METAR 2022/12/04 05:00 UTC NOAA

Addis Ababa, Ethiopia (HAAB) 08-59N 038-48E 2324M
Dec 04, 2022 - 12:00 AM EST / 2022.12.04 0500 UTC
Wind: from the ESE (110 degrees) at 6 MPH (5 KT):0
Visibility: greater than 7 mile(s):0
Sky conditions: mostly clear
Temperature: 55 F (13 C)
Dew Point: 39 F (4 C)
Relative Humidity: 54%
Pressure (altimeter): 30.30 in. Hg (1026 hPa)
ob: HAAB 040500Z 11005KT 9999 FEW025 13/04 Q1026 NOSIG
cycle: 5

Station Type Date Time Source
HAAB TAF 2022/12/04 06:48 UTC NOAA

TAF TAF HAAB 040330Z 0406/0512 12008KT 9999 FEW025 FEW090
BECMG 0406/0412 12009KT CAVOK

Example: see airport list